sensor_id;sensor_type;location;lat;lon;timestamp;pressure;altitude;pressure_sealevel;temperature;humidity
5062;BME280;2351;50.812;12.872;2023-07-13T00:01:22;97670.84;;;18.84;61.45
5062;BME280;2351;50.812;12.872;2023-07-13T00:03:54;97656.50;;;18.70;62.09
5062;BME280;2351;50.812;12.872;2023-07-13T00:06:26;97654.50;;;18.57;62.83
5062;BME280;2351;50.812;12.872;2023-07-13T00:09:01;97653.16;;;18.46;64.44
5062;BME280;2351;50.812;12.872;2023-07-13T00:11:33;97651.97;;;18.34;64.87
5062;BME280;2351;50.812;12.872;2023-07-13T00:14:06;97654.59;;;18.27;65.80
5062;BME280;2351;50.812;12.872;2023-07-13T00:16:39;97652.47;;;18.23;66.02
5062;BME280;2351;50.812;12.872;2023-07-13T00:19:14;97652.66;;;18.21;66.47
5062;BME280;2351;50.812;12.872;2023-07-13T00:21:46;97660.69;;;18.21;66.97
5062;BME280;2351;50.812;12.872;2023-07-13T00:24:18;97659.44;;;18.17;67.17
5062;BME280;2351;50.812;12.872;2023-07-13T00:26:53;97647.69;;;18.18;67.61
5062;BME280;2351;50.812;12.872;2023-07-13T00:29:27;97659.88;;;18.20;67.92
5062;BME280;2351;50.812;12.872;2023-07-13T00:31:59;97664.22;;;18.21;67.73
5062;BME280;2351;50.812;12.872;2023-07-13T00:34:31;97683.78;;;18.22;68.46
5062;BME280;2351;50.812;12.872;2023-07-13T00:37:03;97689.97;;;18.23;68.68
5062;BME280;2351;50.812;12.872;2023-07-13T00:39:36;97692.00;;;18.20;69.18
5062;BME280;2351;50.812;12.872;2023-07-13T00:42:09;97689.53;;;18.19;69.08
5062;BME280;2351;50.812;12.872;2023-07-13T00:46:02;97682.50;;;18.18;69.00
5062;BME280;2351;50.812;12.872;2023-07-13T00:47:58;97681.22;;;18.14;69.33
5062;BME280;2351;50.812;12.872;2023-07-13T00:50:30;97672.97;;;18.15;69.88
5062;BME280;2351;50.812;12.872;2023-07-13T00:53:02;97670.31;;;18.15;70.00
5062;BME280;2351;50.812;12.872;2023-07-13T00:55:34;97663.13;;;18.16;70.33
5062;BME280;2351;50.812;12.872;2023-07-13T00:58:06;97658.94;;;18.13;70.57
5062;BME280;2351;50.812;12.872;2023-07-13T01:00:40;97646.56;;;18.12;71.03
5062;BME280;2351;50.812;12.872;2023-07-13T01:03:12;97639.56;;;18.11;71.10
5062;BME280;2351;50.812;12.872;2023-07-13T01:05:43;97638.47;;;18.05;71.53
5062;BME280;2351;50.812;12.872;2023-07-13T01:08:15;97638.56;;;17.97;71.71
5062;BME280;2351;50.812;12.872;2023-07-13T01:10:51;97637.28;;;17.93;72.11
5062;BME280;2351;50.812;12.872;2023-07-13T01:13:23;97644.47;;;17.92;72.41
5062;BME280;2351;50.812;12.872;2023-07-13T01:15:58;97643.06;;;17.97;72.48
5062;BME280;2351;50.812;12.872;2023-07-13T01:18:34;97651.03;;;17.90;72.09
5062;BME280;2351;50.812;12.872;2023-07-13T01:21:08;97640.41;;;17.82;72.62
5062;BME280;2351;50.812;12.872;2023-07-13T01:23:39;97652.69;;;17.76;72.70
5062;BME280;2351;50.812;12.872;2023-07-13T01:26:11;97653.91;;;17.73;72.80
5062;BME280;2351;50.812;12.872;2023-07-13T01:28:43;97651.75;;;17.69;73.11
5062;BME280;2351;50.812;12.872;2023-07-13T01:31:15;97654.00;;;17.65;73.57
5062;BME280;2351;50.812;12.872;2023-07-13T01:33:46;97655.66;;;17.66;74.01
5062;BME280;2351;50.812;12.872;2023-07-13T01:36:19;97651.31;;;17.65;74.38
5062;BME280;2351;50.812;12.872;2023-07-13T01:38:51;97646.69;;;17.59;74.76
5062;BME280;2351;50.812;12.872;2023-07-13T01:41:23;97647.91;;;17.56;74.96
5062;BME280;2351;50.812;12.872;2023-07-13T01:43:55;97642.72;;;17.55;75.18
5062;BME280;2351;50.812;12.872;2023-07-13T01:46:26;97646.25;;;17.55;75.29
5062;BME280;2351;50.812;12.872;2023-07-13T01:48:58;97646.25;;;17.55;75.65
5062;BME280;2351;50.812;12.872;2023-07-13T01:51:31;97648.72;;;17.57;75.75
5062;BME280;2351;50.812;12.872;2023-07-13T01:54:03;97654.91;;;17.57;75.98
5062;BME280;2351;50.812;12.872;2023-07-13T01:56:35;97647.69;;;17.58;76.46
5062;BME280;2351;50.812;12.872;2023-07-13T01:59:06;97654.06;;;17.57;76.62
5062;BME280;2351;50.812;12.872;2023-07-13T02:01:38;97660.25;;;17.57;76.80
5062;BME280;2351;50.812;12.872;2023-07-13T02:04:10;97667.66;;;17.55;76.98
5062;BME280;2351;50.812;12.872;2023-07-13T02:06:43;97670.78;;;17.59;76.91
5062;BME280;2351;50.812;12.872;2023-07-13T02:09:15;97667.00;;;17.53;77.20
5062;BME280;2351;50.812;12.872;2023-07-13T02:11:47;97661.19;;;17.50;77.38
5062;BME280;2351;50.812;12.872;2023-07-13T02:14:18;97671.41;;;17.46;77.64
5062;BME280;2351;50.812;12.872;2023-07-13T02:16:50;97659.44;;;17.42;78.02
5062;BME280;2351;50.812;12.872;2023-07-13T02:19:22;97652.59;;;17.39;78.17
5062;BME280;2351;50.812;12.872;2023-07-13T02:21:55;97647.59;;;17.36;78.43
5062;BME280;2351;50.812;12.872;2023-07-13T02:24:27;97647.50;;;17.29;78.83
5062;BME280;2351;50.812;12.872;2023-07-13T02:26:59;97649.06;;;17.24;79.14
5062;BME280;2351;50.812;12.872;2023-07-13T02:29:31;97653.13;;;17.20;79.58
5062;BME280;2351;50.812;12.872;2023-07-13T02:32:03;97657.81;;;17.17;79.57
5062;BME280;2351;50.812;12.872;2023-07-13T02:34:35;97658.81;;;17.16;80.12
5062;BME280;2351;50.812;12.872;2023-07-13T02:37:08;97655.34;;;17.16;80.35
5062;BME280;2351;50.812;12.872;2023-07-13T02:39:39;97658.00;;;17.16;80.64
5062;BME280;2351;50.812;12.872;2023-07-13T02:42:11;97662.34;;;17.17;80.58
5062;BME280;2351;50.812;12.872;2023-07-13T02:44:43;97658.81;;;17.16;81.00
5062;BME280;2351;50.812;12.872;2023-07-13T02:47:15;97660.84;;;17.14;80.94
5062;BME280;2351;50.812;12.872;2023-07-13T02:49:46;97661.03;;;17.13;81.45
5062;BME280;2351;50.812;12.872;2023-07-13T02:52:19;97669.88;;;17.13;81.71
5062;BME280;2351;50.812;12.872;2023-07-13T02:54:51;97668.22;;;17.12;81.79
5062;BME280;2351;50.812;12.872;2023-07-13T02:57:23;97668.41;;;17.11;81.98
5062;BME280;2351;50.812;12.872;2023-07-13T02:59:54;97674.75;;;17.10;82.40
5062;BME280;2351;50.812;12.872;2023-07-13T03:02:26;97681.78;;;17.11;82.76
5062;BME280;2351;50.812;12.872;2023-07-13T03:04:58;97678.91;;;17.12;82.85
5062;BME280;2351;50.812;12.872;2023-07-13T03:07:31;97680.94;;;17.10;83.08
5062;BME280;2351;50.812;12.872;2023-07-13T03:10:04;97676.13;;;17.06;83.27
5062;BME280;2351;50.812;12.872;2023-07-13T03:12:36;97690.69;;;17.03;83.47
5062;BME280;2351;50.812;12.872;2023-07-13T03:15:09;97684.03;;;16.99;83.54
5062;BME280;2351;50.812;12.872;2023-07-13T03:17:40;97693.59;;;16.93;83.58
5062;BME280;2351;50.812;12.872;2023-07-13T03:20:12;97695.59;;;16.91;84.21
5062;BME280;2351;50.812;12.872;2023-07-13T03:22:45;97697.06;;;16.94;84.23
5062;BME280;2351;50.812;12.872;2023-07-13T03:25:17;97697.44;;;16.91;83.80
5062;BME280;2351;50.812;12.872;2023-07-13T03:27:49;97692.63;;;16.86;84.26
5062;BME280;2351;50.812;12.872;2023-07-13T03:30:20;97688.84;;;16.80;84.64
5062;BME280;2351;50.812;12.872;2023-07-13T03:32:52;97689.38;;;16.76;84.96
5062;BME280;2351;50.812;12.872;2023-07-13T03:35:24;97687.22;;;16.71;85.30
5062;BME280;2351;50.812;12.872;2023-07-13T03:37:57;97687.22;;;16.71;85.58
5062;BME280;2351;50.812;12.872;2023-07-13T03:40:29;97692.22;;;16.74;85.90
5062;BME280;2351;50.812;12.872;2023-07-13T03:43:01;97696.56;;;16.75;86.17
5062;BME280;2351;50.812;12.872;2023-07-13T03:45:32;97698.03;;;16.78;86.32
5062;BME280;2351;50.812;12.872;2023-07-13T03:48:04;97710.75;;;16.76;86.25
5062;BME280;2351;50.812;12.872;2023-07-13T03:50:36;97706.59;;;16.73;86.21
5062;BME280;2351;50.812;12.872;2023-07-13T03:53:10;97704.09;;;16.71;86.55
5062;BME280;2351;50.812;12.872;2023-07-13T03:55:41;97699.56;;;16.72;86.49
5062;BME280;2351;50.812;12.872;2023-07-13T03:58:30;97717.75;;;16.77;86.28
5062;BME280;2351;50.812;12.872;2023-07-13T04:01:03;97728.81;;;16.74;86.67
5062;BME280;2351;50.812;12.872;2023-07-13T04:03:35;97728.97;;;16.72;86.86
5062;BME280;2351;50.812;12.872;2023-07-13T04:06:13;97724.94;;;16.76;87.29
5062;BME280;2351;50.812;12.872;2023-07-13T04:08:47;97725.59;;;16.78;87.19
5062;BME280;2351;50.812;12.872;2023-07-13T04:11:22;97721.72;;;16.81;87.63
5062;BME280;2351;50.812;12.872;2023-07-13T04:13:54;97722.56;;;16.81;87.62
5062;BME280;2351;50.812;12.872;2023-07-13T04:16:26;97718.88;;;16.82;87.85
5062;BME280;2351;50.812;12.872;2023-07-13T04:18:58;97719.72;;;16.83;87.98
5062;BME280;2351;50.812;12.872;2023-07-13T04:21:31;97718.88;;;16.82;88.22
5062;BME280;2351;50.812;12.872;2023-07-13T04:24:04;97705.53;;;16.82;88.02
5062;BME280;2351;50.812;12.872;2023-07-13T04:26:36;97712.03;;;16.80;87.51
5062;BME280;2351;50.812;12.872;2023-07-13T04:29:08;97700.88;;;16.76;87.65
5062;BME280;2351;50.812;12.872;2023-07-13T04:31:40;97707.25;;;16.75;88.00
5062;BME280;2351;50.812;12.872;2023-07-13T04:34:12;97714.25;;;16.76;87.87
5062;BME280;2351;50.812;12.872;2023-07-13T04:36:43;97715.25;;;16.75;88.24
5062;BME280;2351;50.812;12.872;2023-07-13T04:39:17;97716.09;;;16.76;88.32
5062;BME280;2351;50.812;12.872;2023-07-13T04:41:48;97711.38;;;16.78;88.74
5062;BME280;2351;50.812;12.872;2023-07-13T04:44:20;97722.91;;;16.78;88.77
5062;BME280;2351;50.812;12.872;2023-07-13T04:46:51;97723.38;;;16.82;89.10
5062;BME280;2351;50.812;12.872;2023-07-13T04:49:23;97732.25;;;16.82;89.27
5062;BME280;2351;50.812;12.872;2023-07-13T04:51:55;97731.06;;;16.85;89.41
5062;BME280;2351;50.812;12.872;2023-07-13T04:54:28;97729.88;;;16.88;89.89
5062;BME280;2351;50.812;12.872;2023-07-13T04:57:00;97737.03;;;16.95;90.19
5062;BME280;2351;50.812;12.872;2023-07-13T04:59:32;97738.81;;;17.03;90.37
5062;BME280;2351;50.812;12.872;2023-07-13T05:02:04;97736.06;;;17.11;90.70
5062;BME280;2351;50.812;12.872;2023-07-13T05:04:36;97744.50;;;17.23;90.47
5062;BME280;2351;50.812;12.872;2023-07-13T05:07:09;97744.44;;;17.31;90.65
5062;BME280;2351;50.812;12.872;2023-07-13T05:09:42;97742.22;;;17.35;90.48
5062;BME280;2351;50.812;12.872;2023-07-13T05:12:14;97736.16;;;17.41;90.73
5062;BME280;2351;50.812;12.872;2023-07-13T05:14:46;97735.44;;;17.48;90.75
5062;BME280;2351;50.812;12.872;2023-07-13T05:17:19;97734.72;;;17.54;90.90
5062;BME280;2351;50.812;12.872;2023-07-13T05:19:50;97747.91;;;17.55;90.76
5062;BME280;2351;50.812;12.872;2023-07-13T05:22:22;97754.72;;;17.58;90.57
5062;BME280;2351;50.812;12.872;2023-07-13T05:24:55;97746.34;;;17.61;90.50
5062;BME280;2351;50.812;12.872;2023-07-13T05:27:27;97738.66;;;17.58;90.39
5062;BME280;2351;50.812;12.872;2023-07-13T05:29:59;97738.66;;;17.58;90.47
5062;BME280;2351;50.812;12.872;2023-07-13T05:32:31;97743.09;;;17.66;90.41
5062;BME280;2351;50.812;12.872;2023-07-13T05:35:03;97752.53;;;17.76;90.71
5062;BME280;2351;50.812;12.872;2023-07-13T05:37:37;97755.44;;;17.90;91.15
5062;BME280;2351;50.812;12.872;2023-07-13T05:40:11;97755.19;;;18.00;90.57
5062;BME280;2351;50.812;12.872;2023-07-13T05:42:42;97762.94;;;18.10;90.83
5062;BME280;2351;50.812;12.872;2023-07-13T05:45:14;97750.56;;;18.24;90.65
5062;BME280;2351;50.812;12.872;2023-07-13T05:47:46;97750.53;;;18.39;91.19
5062;BME280;2351;50.812;12.872;2023-07-13T05:50:18;97754.75;;;18.48;90.08
5062;BME280;2351;50.812;12.872;2023-07-13T05:52:50;97759.19;;;18.56;89.57
5062;BME280;2351;50.812;12.872;2023-07-13T05:55:24;97759.09;;;18.64;88.66
5062;BME280;2351;50.812;12.872;2023-07-13T05:57:55;97756.09;;;18.74;88.20
5062;BME280;2351;50.812;12.872;2023-07-13T06:00:28;97764.41;;;18.79;87.50
5062;BME280;2351;50.812;12.872;2023-07-13T06:03:00;97756.22;;;18.87;87.27
5062;BME280;2351;50.812;12.872;2023-07-13T06:05:31;97768.88;;;18.93;86.68
5062;BME280;2351;50.812;12.872;2023-07-13T06:08:04;97770.53;;;18.94;85.73
5062;BME280;2351;50.812;12.872;2023-07-13T06:10:38;97768.25;;;18.91;84.86
5062;BME280;2351;50.812;12.872;2023-07-13T06:13:09;97770.47;;;18.88;84.15
5062;BME280;2351;50.812;12.872;2023-07-13T06:15:41;97771.50;;;18.87;83.52
5062;BME280;2351;50.812;12.872;2023-07-13T06:18:13;97780.34;;;18.87;83.42
5062;BME280;2351;50.812;12.872;2023-07-13T06:20:45;97779.00;;;19.13;83.26
5062;BME280;2351;50.812;12.872;2023-07-13T06:23:16;97777.97;;;19.36;82.48
5062;BME280;2351;50.812;12.872;2023-07-13T06:25:49;97783.47;;;19.49;81.68
5062;BME280;2351;50.812;12.872;2023-07-13T06:28:21;97776.06;;;19.51;80.56
5062;BME280;2351;50.812;12.872;2023-07-13T06:30:53;97774.16;;;19.45;80.01
5062;BME280;2351;50.812;12.872;2023-07-13T06:33:25;97781.34;;;19.45;79.29
5062;BME280;2351;50.812;12.872;2023-07-13T06:35:57;97781.13;;;19.39;78.43
5062;BME280;2351;50.812;12.872;2023-07-13T06:38:28;97787.69;;;19.37;78.08
5062;BME280;2351;50.812;12.872;2023-07-13T06:41:02;97788.72;;;19.36;77.64
5062;BME280;2351;50.812;12.872;2023-07-13T06:43:34;97787.44;;;19.32;77.11
5062;BME280;2351;50.812;12.872;2023-07-13T06:46:06;97794.28;;;19.34;77.04
5062;BME280;2351;50.812;12.872;2023-07-13T06:48:38;97793.97;;;19.44;76.78
5062;BME280;2351;50.812;12.872;2023-07-13T06:51:10;97794.91;;;19.58;76.55
5062;BME280;2351;50.812;12.872;2023-07-13T06:53:41;97794.19;;;19.71;75.88
5062;BME280;2351;50.812;12.872;2023-07-13T06:56:15;97799.16;;;19.74;75.27
5062;BME280;2351;50.812;12.872;2023-07-13T06:58:47;97796.31;;;19.82;75.28
5062;BME280;2351;50.812;12.872;2023-07-13T07:01:19;97796.06;;;19.99;74.74
5062;BME280;2351;50.812;12.872;2023-07-13T07:03:50;97796.41;;;20.17;74.51
5062;BME280;2351;50.812;12.872;2023-07-13T07:06:23;97792.13;;;20.30;73.61
5062;BME280;2351;50.812;12.872;2023-07-13T07:08:55;97792.78;;;20.39;73.37
5062;BME280;2351;50.812;12.872;2023-07-13T07:11:28;97798.00;;;20.47;72.14
5062;BME280;2351;50.812;12.872;2023-07-13T07:14:00;97794.22;;;20.41;71.07
5062;BME280;2351;50.812;12.872;2023-07-13T07:16:31;97793.88;;;20.51;70.86
5062;BME280;2351;50.812;12.872;2023-07-13T07:19:03;97792.66;;;20.60;69.98
5062;BME280;2351;50.812;12.872;2023-07-13T07:21:35;97791.03;;;20.66;69.29
5062;BME280;2351;50.812;12.872;2023-07-13T07:24:06;97793.31;;;20.69;68.68
5062;BME280;2351;50.812;12.872;2023-07-13T07:26:40;97792.53;;;20.75;68.10
5062;BME280;2351;50.812;12.872;2023-07-13T07:29:12;97794.84;;;20.79;67.78
5062;BME280;2351;50.812;12.872;2023-07-13T07:31:44;97794.66;;;20.87;67.41
5062;BME280;2351;50.812;12.872;2023-07-13T07:34:15;97792.81;;;20.94;66.48
5062;BME280;2351;50.812;12.872;2023-07-13T07:36:47;97792.81;;;21.01;65.87
5062;BME280;2351;50.812;12.872;2023-07-13T07:39:20;97790.34;;;20.99;64.75
5062;BME280;2351;50.812;12.872;2023-07-13T07:41:54;97792.25;;;21.05;64.62
5062;BME280;2351;50.812;12.872;2023-07-13T07:44:26;97779.19;;;21.16;64.39
5062;BME280;2351;50.812;12.872;2023-07-13T07:46:58;97788.13;;;21.23;63.29
5062;BME280;2351;50.812;12.872;2023-07-13T07:49:30;97787.91;;;21.25;62.43
5062;BME280;2351;50.812;12.872;2023-07-13T07:52:03;97787.09;;;21.31;60.74
5062;BME280;2351;50.812;12.872;2023-07-13T07:54:34;97794.13;;;21.32;61.12
5062;BME280;2351;50.812;12.872;2023-07-13T07:57:07;97795.38;;;21.43;60.71
5062;BME280;2351;50.812;12.872;2023-07-13T07:59:40;97790.84;;;21.57;60.19
5062;BME280;2351;50.812;12.872;2023-07-13T08:02:11;97799.56;;;21.65;59.55
5062;BME280;2351;50.812;12.872;2023-07-13T08:04:43;97795.84;;;21.66;58.52
5062;BME280;2351;50.812;12.872;2023-07-13T08:07:15;97790.84;;;21.77;57.83
5062;BME280;2351;50.812;12.872;2023-07-13T08:09:46;97806.41;;;21.88;57.61
5062;BME280;2351;50.812;12.872;2023-07-13T08:12:24;97800.19;;;21.94;56.91
5062;BME280;2351;50.812;12.872;2023-07-13T08:14:55;97798.53;;;21.93;56.22
5062;BME280;2351;50.812;12.872;2023-07-13T08:17:28;97806.81;;;21.92;52.32
5062;BME280;2351;50.812;12.872;2023-07-13T08:19:59;97811.19;;;21.73;53.29
5062;BME280;2351;50.812;12.872;2023-07-13T08:22:31;97807.63;;;21.59;52.66
5062;BME280;2351;50.812;12.872;2023-07-13T08:25:04;97809.94;;;21.62;52.40
5062;BME280;2351;50.812;12.872;2023-07-13T08:27:37;97824.03;;;21.71;52.41
5062;BME280;2351;50.812;12.872;2023-07-13T08:30:09;97816.34;;;21.81;52.96
5062;BME280;2351;50.812;12.872;2023-07-13T08:32:41;97822.78;;;21.93;51.64
5062;BME280;2351;50.812;12.872;2023-07-13T08:35:13;97820.50;;;21.90;50.92
5062;BME280;2351;50.812;12.872;2023-07-13T08:37:46;97829.19;;;21.72;50.44
5062;BME280;2351;50.812;12.872;2023-07-13T08:40:19;97819.84;;;21.48;50.55
5062;BME280;2351;50.812;12.872;2023-07-13T08:42:57;97827.69;;;21.43;50.85
5062;BME280;2351;50.812;12.872;2023-07-13T08:45:42;97814.84;;;21.45;50.61
5062;BME280;2351;50.812;12.872;2023-07-13T08:48:18;97818.38;;;21.52;51.38
5062;BME280;2351;50.812;12.872;2023-07-13T08:50:56;97821.72;;;21.74;51.37
5062;BME280;2351;50.812;12.872;2023-07-13T08:53:34;97826.50;;;21.99;51.34
5062;BME280;2351;50.812;12.872;2023-07-13T08:56:21;97822.09;;;22.18;50.93
5062;BME280;2351;50.812;12.872;2023-07-13T08:58:58;97816.09;;;22.23;50.61
5062;BME280;2351;50.812;12.872;2023-07-13T09:01:38;97826.25;;;22.21;50.31
5062;BME280;2351;50.812;12.872;2023-07-13T09:04:19;97821.06;;;22.26;50.04
5062;BME280;2351;50.812;12.872;2023-07-13T09:06:59;97827.06;;;22.28;49.55
5062;BME280;2351;50.812;12.872;2023-07-13T09:09:40;97831.59;;;22.34;49.71
5062;BME280;2351;50.812;12.872;2023-07-13T09:12:18;97832.63;;;22.40;49.53
5062;BME280;2351;50.812;12.872;2023-07-13T09:14:56;97830.53;;;22.42;49.20
5062;BME280;2351;50.812;12.872;2023-07-13T09:17:34;97820.81;;;22.54;49.42
5062;BME280;2351;50.812;12.872;2023-07-13T09:20:16;97825.94;;;22.63;48.83
5062;BME280;2351;50.812;12.872;2023-07-13T09:22:50;97835.53;;;22.59;48.73
5062;BME280;2351;50.812;12.872;2023-07-13T09:25:27;97831.78;;;22.60;48.86
5062;BME280;2351;50.812;12.872;2023-07-13T09:28:05;97829.25;;;22.65;48.46
5062;BME280;2351;50.812;12.872;2023-07-13T09:30:49;97837.59;;;22.56;48.33
5062;BME280;2351;50.812;12.872;2023-07-13T09:33:23;97834.47;;;22.53;48.24
5062;BME280;2351;50.812;12.872;2023-07-13T09:35:59;97836.78;;;22.49;47.85
5062;BME280;2351;50.812;12.872;2023-07-13T09:38:32;97837.63;;;22.43;47.37
5062;BME280;2351;50.812;12.872;2023-07-13T09:41:15;97841.34;;;22.35;47.45
5062;BME280;2351;50.812;12.872;2023-07-13T09:44:15;97848.63;;;22.21;47.14
5062;BME280;2351;50.812;12.872;2023-07-13T09:46:53;97859.22;;;22.09;47.29
5062;BME280;2351;50.812;12.872;2023-07-13T09:49:26;97859.63;;;21.93;47.95
5062;BME280;2351;50.812;12.872;2023-07-13T09:52:00;97862.13;;;21.81;48.48
5062;BME280;2351;50.812;12.872;2023-07-13T09:54:34;97860.88;;;21.77;48.95
5062;BME280;2351;50.812;12.872;2023-07-13T09:57:13;97864.19;;;21.79;48.93
5062;BME280;2351;50.812;12.872;2023-07-13T09:59:47;97857.78;;;21.80;49.30
5062;BME280;2351;50.812;12.872;2023-07-13T10:02:31;97854.25;;;21.86;49.09
5062;BME280;2351;50.812;12.872;2023-07-13T10:05:05;97858.00;;;21.78;49.39
5062;BME280;2351;50.812;12.872;2023-07-13T10:07:39;97864.19;;;21.79;49.50
5062;BME280;2351;50.812;12.872;2023-07-13T10:10:14;97875.59;;;21.81;49.63
5062;BME280;2351;50.812;12.872;2023-07-13T10:12:48;97865.84;;;21.80;49.59
5062;BME280;2351;50.812;12.872;2023-07-13T10:15:21;97863.16;;;21.80;49.63
5062;BME280;2351;50.812;12.872;2023-07-13T10:17:55;97860.47;;;21.80;49.41
5062;BME280;2351;50.812;12.872;2023-07-13T10:20:28;97857.97;;;21.92;49.92
5062;BME280;2351;50.812;12.872;2023-07-13T10:23:05;97857.56;;;22.08;49.62
5062;BME280;2351;50.812;12.872;2023-07-13T10:25:43;97862.09;;;22.21;50.04
5062;BME280;2351;50.812;12.872;2023-07-13T10:28:25;97865.59;;;22.35;50.16
5062;BME280;2351;50.812;12.872;2023-07-13T10:30:59;97862.91;;;22.42;50.04
5062;BME280;2351;50.812;12.872;2023-07-13T10:33:34;97854.81;;;22.42;49.46
5062;BME280;2351;50.812;12.872;2023-07-13T10:36:13;97849.88;;;22.46;49.20
5062;BME280;2351;50.812;12.872;2023-07-13T10:38:47;97848.38;;;22.63;49.53
5062;BME280;2351;50.812;12.872;2023-07-13T10:41:21;97847.69;;;22.81;48.72
5062;BME280;2351;50.812;12.872;2023-07-13T10:43:55;97842.84;;;22.97;47.63
5062;BME280;2351;50.812;12.872;2023-07-13T10:46:28;97840.50;;;23.07;47.37
5062;BME280;2351;50.812;12.872;2023-07-13T10:49:04;97843.34;;;23.26;46.77
5062;BME280;2351;50.812;12.872;2023-07-13T10:51:37;97854.97;;;23.20;44.92
5062;BME280;2351;50.812;12.872;2023-07-13T10:54:18;97836.75;;;23.08;44.83
5062;BME280;2351;50.812;12.872;2023-07-13T10:56:54;97835.72;;;23.09;44.71
5062;BME280;2351;50.812;12.872;2023-07-13T10:59:38;97843.38;;;23.12;44.36
5062;BME280;2351;50.812;12.872;2023-07-13T11:02:17;97848.94;;;23.24;44.31
5062;BME280;2351;50.812;12.872;2023-07-13T11:04:55;97848.91;;;23.31;42.94
5062;BME280;2351;50.812;12.872;2023-07-13T11:07:31;97831.97;;;23.49;42.90
5062;BME280;2351;50.812;12.872;2023-07-13T11:10:48;97837.38;;;23.74;43.38
5062;BME280;2351;50.812;12.872;2023-07-13T11:13:56;97837.81;;;24.03;42.07
5062;BME280;2351;50.812;12.872;2023-07-13T11:16:50;97832.16;;;24.30;42.24
5062;BME280;2351;50.812;12.872;2023-07-13T11:19:42;97838.69;;;24.23;39.49
5062;BME280;2351;50.812;12.872;2023-07-13T11:22:22;97829.94;;;24.02;40.45
5062;BME280;2351;50.812;12.872;2023-07-13T11:24:59;97830.31;;;24.05;41.01
5062;BME280;2351;50.812;12.872;2023-07-13T11:27:36;97831.00;;;23.94;40.83
5062;BME280;2351;50.812;12.872;2023-07-13T11:30:22;97821.53;;;23.85;41.32
5062;BME280;2351;50.812;12.872;2023-07-13T11:33:10;97831.13;;;23.81;41.48
5062;BME280;2351;50.812;12.872;2023-07-13T11:35:49;97834.06;;;23.79;40.76
5062;BME280;2351;50.812;12.872;2023-07-13T11:38:32;97830.69;;;23.52;41.06
5062;BME280;2351;50.812;12.872;2023-07-13T11:41:07;97830.56;;;23.40;42.09
5062;BME280;2351;50.812;12.872;2023-07-13T11:43:39;97827.97;;;23.58;42.34
5062;BME280;2351;50.812;12.872;2023-07-13T11:46:15;97814.19;;;23.67;42.21
5062;BME280;2351;50.812;12.872;2023-07-13T11:48:48;97826.56;;;23.81;42.54
5062;BME280;2351;50.812;12.872;2023-07-13T11:51:23;97824.72;;;24.00;42.34
5062;BME280;2351;50.812;12.872;2023-07-13T11:54:01;97820.31;;;24.06;42.17
5062;BME280;2351;50.812;12.872;2023-07-13T11:56:36;97823.13;;;23.92;41.50
5062;BME280;2351;50.812;12.872;2023-07-13T11:59:11;97823.44;;;23.77;41.85
5062;BME280;2351;50.812;12.872;2023-07-13T12:01:46;97826.25;;;23.64;42.12
5062;BME280;2351;50.812;12.872;2023-07-13T12:04:23;97825.41;;;23.64;42.42
5062;BME280;2351;50.812;12.872;2023-07-13T12:06:57;97826.25;;;23.89;43.13
5062;BME280;2351;50.812;12.872;2023-07-13T12:09:32;97815.91;;;24.12;42.48
5062;BME280;2351;50.812;12.872;2023-07-13T12:12:11;97827.47;;;24.19;41.78
5062;BME280;2351;50.812;12.872;2023-07-13T12:14:44;97830.91;;;24.08;41.63
5062;BME280;2351;50.812;12.872;2023-07-13T12:17:18;97824.47;;;24.09;41.91
5062;BME280;2351;50.812;12.872;2023-07-13T12:19:51;97822.53;;;24.16;42.09
5062;BME280;2351;50.812;12.872;2023-07-13T12:22:24;97820.56;;;24.42;42.39
5062;BME280;2351;50.812;12.872;2023-07-13T12:24:58;97812.84;;;24.64;41.35
5062;BME280;2351;50.812;12.872;2023-07-13T12:27:29;97817.16;;;24.72;40.86
5062;BME280;2351;50.812;12.872;2023-07-13T12:30:06;97822.88;;;24.82;40.59
5062;BME280;2351;50.812;12.872;2023-07-13T12:32:56;97809.19;;;25.07;40.75
5062;BME280;2351;50.812;12.872;2023-07-13T12:35:30;97811.03;;;25.25;40.21
5062;BME280;2351;50.812;12.872;2023-07-13T12:38:08;97810.66;;;25.52;40.20
5062;BME280;2351;50.812;12.872;2023-07-13T12:40:43;97806.56;;;25.74;39.39
5062;BME280;2351;50.812;12.872;2023-07-13T12:43:15;97805.66;;;25.92;39.46
5062;BME280;2351;50.812;12.872;2023-07-13T12:45:59;97809.66;;;26.25;38.74
5062;BME280;2351;50.812;12.872;2023-07-13T12:48:38;97810.00;;;26.40;37.56
5062;BME280;2351;50.812;12.872;2023-07-13T12:51:13;97816.13;;;26.48;37.00
5062;BME280;2351;50.812;12.872;2023-07-13T12:53:49;97810.38;;;26.32;36.23
5062;BME280;2351;50.812;12.872;2023-07-13T12:56:24;97815.66;;;26.03;36.33
5062;BME280;2351;50.812;12.872;2023-07-13T12:58:58;97808.34;;;25.80;36.71
5062;BME280;2351;50.812;12.872;2023-07-13T13:01:34;97801.16;;;25.85;37.14
5062;BME280;2351;50.812;12.872;2023-07-13T13:04:09;97814.59;;;25.92;36.90
5062;BME280;2351;50.812;12.872;2023-07-13T13:06:41;97817.88;;;25.82;36.60
5062;BME280;2351;50.812;12.872;2023-07-13T13:09:16;97823.03;;;25.72;36.72
5062;BME280;2351;50.812;12.872;2023-07-13T13:11:50;97821.53;;;25.88;36.85
5062;BME280;2351;50.812;12.872;2023-07-13T13:14:22;97818.72;;;25.95;36.31
5062;BME280;2351;50.812;12.872;2023-07-13T13:16:55;97817.06;;;26.06;36.51
5062;BME280;2351;50.812;12.872;2023-07-13T13:19:28;97816.72;;;26.02;35.57
5062;BME280;2351;50.812;12.872;2023-07-13T13:22:01;97812.47;;;25.82;35.53
5062;BME280;2351;50.812;12.872;2023-07-13T13:24:32;97812.09;;;25.55;35.37
5062;BME280;2351;50.812;12.872;2023-07-13T13:27:13;97814.34;;;25.39;36.19
5062;BME280;2351;50.812;12.872;2023-07-13T13:29:47;97806.78;;;25.48;36.54
5062;BME280;2351;50.812;12.872;2023-07-13T13:32:20;97807.00;;;25.59;36.27
5062;BME280;2351;50.812;12.872;2023-07-13T13:34:52;97808.44;;;25.73;36.18
5062;BME280;2351;50.812;12.872;2023-07-13T13:37:24;97812.72;;;25.93;35.70
5062;BME280;2351;50.812;12.872;2023-07-13T13:39:56;97815.94;;;26.13;35.62
5062;BME280;2351;50.812;12.872;2023-07-13T13:42:29;97816.41;;;26.22;35.02
5062;BME280;2351;50.812;12.872;2023-07-13T13:45:01;97821.09;;;26.15;34.42
5062;BME280;2351;50.812;12.872;2023-07-13T13:47:34;97826.97;;;25.88;33.77